sensor_id;sensor_type;location;lat;lon;timestamp;pressure;altitude;pressure_sealevel;temperature;humidity
11011;BME280;5558;42.702;23.178;2022-10-16T00:02:02;94304.00;;;7.90;100.00
11011;BME280;5558;42.702;23.178;2022-10-16T00:04:29;94311.78;;;7.85;100.00
11011;BME280;5558;42.702;23.178;2022-10-16T00:06:55;94320.72;;;7.84;100.00
11011;BME280;5558;42.702;23.178;2022-10-16T00:09:22;94320.50;;;7.85;100.00
11011;BME280;5558;42.702;23.178;2022-10-16T00:11:49;94315.56;;;7.89;100.00
11011;BME280;5558;42.702;23.178;2022-10-16T00:14:17;94313.84;;;7.94;100.00
11011;BME280;5558;42.702;23.178;2022-10-16T00:16:44;94308.91;;;7.98;100.00
11011;BME280;5558;42.702;23.178;2022-10-16T00:19:11;94316.16;;;7.91;100.00
11011;BME280;5558;42.702;23.178;2022-10-16T00:21:38;94321.66;;;7.78;100.00
11011;BME280;5558;42.702;23.178;2022-10-16T00:24:07;94325.69;;;7.69;100.00
11011;BME280;5558;42.702;23.178;2022-10-16T00:26:35;94327.38;;;7.63;100.00
11011;BME280;5558;42.702;23.178;2022-10-16T00:29:03;94321.09;;;7.53;100.00
11011;BME280;5558;42.702;23.178;2022-10-16T00:31:31;94322.34;;;7.62;100.00
11011;BME280;5558;42.702;23.178;2022-10-16T00:33:58;94327.84;;;7.60;100.00
11011;BME280;5558;42.702;23.178;2022-10-16T00:36:26;94319.25;;;7.53;100.00
11011;BME280;5558;42.702;23.178;2022-10-16T00:38:55;94317.56;;;7.47;100.00
11011;BME280;5558;42.702;23.178;2022-10-16T00:41:23;94325.91;;;7.44;100.00
11011;BME280;5558;42.702;23.178;2022-10-16T00:43:52;94290.53;;;7.17;100.00
11011;BME280;5558;42.702;23.178;2022-10-16T00:46:21;94318.69;;;7.39;100.00
11011;BME280;5558;42.702;23.178;2022-10-16T00:48:53;94323.03;;;7.34;100.00
11011;BME280;5558;42.702;23.178;2022-10-16T00:51:25;94302.75;;;7.23;100.00
11011;BME280;5558;42.702;23.178;2022-10-16T00:53:52;94325.00;;;7.38;100.00
11011;BME280;5558;42.702;23.178;2022-10-16T00:56:19;94321.78;;;7.48;100.00
11011;BME280;5558;42.702;23.178;2022-10-16T00:58:46;94323.16;;;7.51;100.00
11011;BME280;5558;42.702;23.178;2022-10-16T01:01:12;94323.16;;;7.51;100.00
11011;BME280;5558;42.702;23.178;2022-10-16T01:03:39;94318.69;;;7.51;100.00
11011;BME280;5558;42.702;23.178;2022-10-16T01:06:18;94302.66;;;7.29;100.00
11011;BME280;5558;42.702;23.178;2022-10-16T01:08:57;94323.84;;;7.34;100.00
11011;BME280;5558;42.702;23.178;2022-10-16T01:11:30;94323.72;;;7.29;100.00
11011;BME280;5558;42.702;23.178;2022-10-16T01:14:03;94324.28;;;7.20;100.00
11011;BME280;5558;42.702;23.178;2022-10-16T01:16:38;94292.44;;;6.98;100.00
11011;BME280;5558;42.702;23.178;2022-10-16T01:19:12;94324.88;;;7.22;100.00
11011;BME280;5558;42.702;23.178;2022-10-16T01:21:43;94320.03;;;7.19;100.00
11011;BME280;5558;42.702;23.178;2022-10-16T01:24:17;94315.00;;;7.17;100.00
11011;BME280;5558;42.702;23.178;2022-10-16T01:27:15;94312.13;;;7.19;100.00
11011;BME280;5558;42.702;23.178;2022-10-16T01:29:51;94305.06;;;7.19;100.00
11011;BME280;5558;42.702;23.178;2022-10-16T01:32:24;94308.59;;;7.25;100.00
11011;BME280;5558;42.702;23.178;2022-10-16T01:34:59;94309.72;;;7.17;100.00
11011;BME280;5558;42.702;23.178;2022-10-16T01:37:32;94306.84;;;7.07;100.00
11011;BME280;5558;42.702;23.178;2022-10-16T01:40:05;94316.50;;;7.13;100.00
11011;BME280;5558;42.702;23.178;2022-10-16T01:42:36;94310.19;;;7.03;100.00
11011;BME280;5558;42.702;23.178;2022-10-16T01:45:07;94327.94;;;7.19;100.00
11011;BME280;5558;42.702;23.178;2022-10-16T01:47:37;94317.28;;;7.14;100.00
11011;BME280;5558;42.702;23.178;2022-10-16T01:50:05;94327.56;;;7.15;100.00
11011;BME280;5558;42.702;23.178;2022-10-16T01:52:36;94325.06;;;7.20;100.00
11011;BME280;5558;42.702;23.178;2022-10-16T01:55:06;94343.19;;;7.17;100.00
11011;BME280;5558;42.702;23.178;2022-10-16T01:57:37;94332.28;;;7.13;100.00
11011;BME280;5558;42.702;23.178;2022-10-16T02:00:08;94333.19;;;7.07;100.00
11011;BME280;5558;42.702;23.178;2022-10-16T02:02:38;94331.81;;;7.05;100.00
11011;BME280;5558;42.702;23.178;2022-10-16T02:05:11;94342.25;;;7.11;100.00
11011;BME280;5558;42.702;23.178;2022-10-16T02:07:41;94335.47;;;7.15;100.00
11011;BME280;5558;42.702;23.178;2022-10-16T02:10:09;94336.53;;;7.14;100.00
11011;BME280;5558;42.702;23.178;2022-10-16T02:12:38;94348.44;;;7.17;100.00
11011;BME280;5558;42.702;23.178;2022-10-16T02:15:08;94328.63;;;7.14;100.00
11011;BME280;5558;42.702;23.178;2022-10-16T02:17:34;94353.38;;;7.25;100.00
11011;BME280;5558;42.702;23.178;2022-10-16T02:20:02;94347.53;;;7.23;100.00
11011;BME280;5558;42.702;23.178;2022-10-16T02:22:32;94351.06;;;7.17;100.00
11011;BME280;5558;42.702;23.178;2022-10-16T02:25:04;94363.53;;;7.10;100.00
11011;BME280;5558;42.702;23.178;2022-10-16T02:27:35;94356.75;;;7.02;100.00
11011;BME280;5558;42.702;23.178;2022-10-16T02:30:09;94356.63;;;6.97;100.00
11011;BME280;5558;42.702;23.178;2022-10-16T02:32:41;94359.94;;;6.93;100.00
11011;BME280;5558;42.702;23.178;2022-10-16T02:35:09;94350.34;;;6.98;100.00
11011;BME280;5558;42.702;23.178;2022-10-16T02:37:37;94357.88;;;6.95;100.00
11011;BME280;5558;42.702;23.178;2022-10-16T02:40:06;94353.94;;;6.86;100.00
11011;BME280;5558;42.702;23.178;2022-10-16T02:42:34;94357.16;;;6.88;100.00
11011;BME280;5558;42.702;23.178;2022-10-16T02:45:01;94357.63;;;6.85;100.00
11011;BME280;5558;42.702;23.178;2022-10-16T02:47:29;94362.16;;;6.78;100.00
11011;BME280;5558;42.702;23.178;2022-10-16T02:49:56;94364.91;;;6.71;100.00
11011;BME280;5558;42.702;23.178;2022-10-16T02:52:22;94367.09;;;6.56;100.00
11011;BME280;5558;42.702;23.178;2022-10-16T02:54:49;94369.06;;;6.61;100.00
11011;BME280;5558;42.702;23.178;2022-10-16T02:57:17;94376.50;;;6.64;100.00
11011;BME280;5558;42.702;23.178;2022-10-16T02:59:44;94369.88;;;6.61;100.00
11011;BME280;5558;42.702;23.178;2022-10-16T03:02:11;94376.09;;;6.49;100.00
11011;BME280;5558;42.702;23.178;2022-10-16T03:04:39;94369.44;;;6.64;100.00
11011;BME280;5558;42.702;23.178;2022-10-16T03:07:05;94373.22;;;6.68;100.00
11011;BME280;5558;42.702;23.178;2022-10-16T03:09:32;94368.41;;;6.65;100.00
11011;BME280;5558;42.702;23.178;2022-10-16T03:11:59;94371.25;;;6.64;100.00
11011;BME280;5558;42.702;23.178;2022-10-16T03:14:26;94374.78;;;6.58;100.00
11011;BME280;5558;42.702;23.178;2022-10-16T03:16:53;94371.34;;;6.57;100.00
11011;BME280;5558;42.702;23.178;2022-10-16T03:19:19;94368.34;;;6.54;100.00
11011;BME280;5558;42.702;23.178;2022-10-16T03:21:48;94376.91;;;6.49;100.00
11011;BME280;5558;42.702;23.178;2022-10-16T03:24:14;94371.00;;;6.54;100.00
11011;BME280;5558;42.702;23.178;2022-10-16T03:26:41;94383.03;;;6.61;100.00
11011;BME280;5558;42.702;23.178;2022-10-16T03:29:08;94368.59;;;6.52;100.00
11011;BME280;5558;42.702;23.178;2022-10-16T03:31:34;94393.38;;;6.56;100.00
11011;BME280;5558;42.702;23.178;2022-10-16T03:34:01;94390.97;;;6.55;100.00
11011;BME280;5558;42.702;23.178;2022-10-16T03:36:28;94388.13;;;6.56;100.00
11011;BME280;5558;42.702;23.178;2022-10-16T03:38:56;94390.13;;;6.61;100.00
11011;BME280;5558;42.702;23.178;2022-10-16T03:41:23;94388.31;;;6.61;100.00
11011;BME280;5558;42.702;23.178;2022-10-16T03:43:49;94377.41;;;6.58;100.00
11011;BME280;5558;42.702;23.178;2022-10-16T03:46:16;94382.31;;;6.54;100.00
11011;BME280;5558;42.702;23.178;2022-10-16T03:48:43;94385.38;;;6.51;100.00
11011;BME280;5558;42.702;23.178;2022-10-16T03:51:09;94382.19;;;6.49;100.00
11011;BME280;5558;42.702;23.178;2022-10-16T03:53:36;94384.66;;;6.44;100.00
11011;BME280;5558;42.702;23.178;2022-10-16T03:56:04;94384.16;;;6.36;100.00
11011;BME280;5558;42.702;23.178;2022-10-16T03:58:31;94386.28;;;6.27;100.00
11011;BME280;5558;42.702;23.178;2022-10-16T04:00:58;94386.50;;;6.26;100.00
11011;BME280;5558;42.702;23.178;2022-10-16T04:03:25;94383.50;;;6.22;100.00
11011;BME280;5558;42.702;23.178;2022-10-16T04:05:51;94379.25;;;6.21;100.00
11011;BME280;5558;42.702;23.178;2022-10-16T04:08:18;94375.84;;;6.21;100.00
11011;BME280;5558;42.702;23.178;2022-10-16T04:10:45;94379.13;;;6.16;100.00
11011;BME280;5558;42.702;23.178;2022-10-16T04:13:13;94373.09;;;6.15;100.00
11011;BME280;5558;42.702;23.178;2022-10-16T04:15:40;94384.22;;;6.11;100.00
11011;BME280;5558;42.702;23.178;2022-10-16T04:18:06;94381.53;;;6.17;100.00
11011;BME280;5558;42.702;23.178;2022-10-16T04:20:33;94383.16;;;6.18;100.00
11011;BME280;5558;42.702;23.178;2022-10-16T04:23:00;94377.75;;;6.13;100.00
11011;BME280;5558;42.702;23.178;2022-10-16T04:25:27;94383.00;;;6.13;100.00
11011;BME280;5558;42.702;23.178;2022-10-16T04:27:54;94383.78;;;6.14;100.00
11011;BME280;5558;42.702;23.178;2022-10-16T04:30:22;94386.22;;;6.15;100.00
11011;BME280;5558;42.702;23.178;2022-10-16T04:32:49;94390.06;;;6.13;100.00
11011;BME280;5558;42.702;23.178;2022-10-16T04:35:16;94380.75;;;6.17;100.00
11011;BME280;5558;42.702;23.178;2022-10-16T04:37:43;94390.22;;;6.18;100.00
11011;BME280;5558;42.702;23.178;2022-10-16T04:40:09;94393.00;;;6.23;100.00
11011;BME280;5558;42.702;23.178;2022-10-16T04:42:36;94395.25;;;6.19;100.00
11011;BME280;5558;42.702;23.178;2022-10-16T04:45:04;94393.22;;;6.22;100.00
11011;BME280;5558;42.702;23.178;2022-10-16T04:47:32;94397.72;;;6.33;100.00
11011;BME280;5558;42.702;23.178;2022-10-16T04:49:59;94393.56;;;6.43;100.00
11011;BME280;5558;42.702;23.178;2022-10-16T04:52:26;94407.50;;;6.62;100.00
11011;BME280;5558;42.702;23.178;2022-10-16T04:54:53;94402.28;;;7.03;100.00
11011;BME280;5558;42.702;23.178;2022-10-16T04:57:21;94403.88;;;7.45;100.00
11011;BME280;5558;42.702;23.178;2022-10-16T04:59:48;94410.09;;;7.85;100.00
11011;BME280;5558;42.702;23.178;2022-10-16T05:02:15;94411.81;;;8.26;100.00
11011;BME280;5558;42.702;23.178;2022-10-16T05:04:43;94424.84;;;8.67;100.00
11011;BME280;5558;42.702;23.178;2022-10-16T05:07:09;94413.47;;;9.06;100.00
11011;BME280;5558;42.702;23.178;2022-10-16T05:09:36;94415.06;;;9.52;100.00
11011;BME280;5558;42.702;23.178;2022-10-16T05:12:03;94416.03;;;9.96;99.98
11011;BME280;5558;42.702;23.178;2022-10-16T05:14:30;94419.72;;;10.49;97.01
11011;BME280;5558;42.702;23.178;2022-10-16T05:16:57;94409.94;;;10.93;93.74
11011;BME280;5558;42.702;23.178;2022-10-16T05:19:24;94421.41;;;11.52;90.22
11011;BME280;5558;42.702;23.178;2022-10-16T05:21:52;94414.69;;;12.02;86.59
11011;BME280;5558;42.702;23.178;2022-10-16T05:24:18;94426.25;;;12.60;81.75
11011;BME280;5558;42.702;23.178;2022-10-16T05:26:45;94429.47;;;13.23;74.36
11011;BME280;5558;42.702;23.178;2022-10-16T05:29:12;94421.84;;;13.82;69.70
11011;BME280;5558;42.702;23.178;2022-10-16T05:31:39;94429.06;;;14.37;66.77
11011;BME280;5558;42.702;23.178;2022-10-16T05:34:05;94424.47;;;14.73;63.97
11011;BME280;5558;42.702;23.178;2022-10-16T05:36:32;94442.56;;;14.81;63.30
11011;BME280;5558;42.702;23.178;2022-10-16T05:39:00;94439.06;;;14.90;62.92
11011;BME280;5558;42.702;23.178;2022-10-16T05:41:27;94443.50;;;15.20;62.11
11011;BME280;5558;42.702;23.178;2022-10-16T05:43:53;94433.25;;;15.47;60.35
11011;BME280;5558;42.702;23.178;2022-10-16T05:46:20;94439.16;;;15.88;59.48
11011;BME280;5558;42.702;23.178;2022-10-16T05:48:47;94439.88;;;16.32;57.95
11011;BME280;5558;42.702;23.178;2022-10-16T05:51:14;94450.19;;;17.00;55.78
11011;BME280;5558;42.702;23.178;2022-10-16T05:53:41;94440.06;;;18.00;52.93
11011;BME280;5558;42.702;23.178;2022-10-16T05:56:10;94449.81;;;18.93;50.08
11011;BME280;5558;42.702;23.178;2022-10-16T05:58:38;94449.81;;;19.74;47.78
11011;BME280;5558;42.702;23.178;2022-10-16T06:01:07;94448.34;;;20.17;46.49
11011;BME280;5558;42.702;23.178;2022-10-16T06:03:35;94456.00;;;20.46;46.09
11011;BME280;5558;42.702;23.178;2022-10-16T06:06:07;94455.38;;;20.71;45.53
11011;BME280;5558;42.702;23.178;2022-10-16T06:08:34;94456.09;;;21.16;44.11
11011;BME280;5558;42.702;23.178;2022-10-16T06:11:01;94463.88;;;20.87;44.52
11011;BME280;5558;42.702;23.178;2022-10-16T06:13:30;94460.47;;;21.34;43.10
11011;BME280;5558;42.702;23.178;2022-10-16T06:15:58;94465.91;;;21.12;43.89
11011;BME280;5558;42.702;23.178;2022-10-16T06:18:25;94470.97;;;20.38;45.02
11011;BME280;5558;42.702;23.178;2022-10-16T06:20:52;94477.84;;;20.67;44.26
11011;BME280;5558;42.702;23.178;2022-10-16T06:23:19;94478.72;;;20.62;44.22
11011;BME280;5558;42.702;23.178;2022-10-16T06:25:45;94468.22;;;20.74;43.91
11011;BME280;5558;42.702;23.178;2022-10-16T06:28:13;94482.34;;;20.57;43.58
11011;BME280;5558;42.702;23.178;2022-10-16T06:30:41;94481.09;;;20.41;44.96
11011;BME280;5558;42.702;23.178;2022-10-16T06:33:09;94487.63;;;19.64;45.22
11011;BME280;5558;42.702;23.178;2022-10-16T06:35:35;94488.66;;;19.68;46.01
11011;BME280;5558;42.702;23.178;2022-10-16T06:38:02;94486.66;;;19.47;47.38
11011;BME280;5558;42.702;23.178;2022-10-16T06:40:29;94490.50;;;17.33;51.73
11011;BME280;5558;42.702;23.178;2022-10-16T06:42:56;94492.66;;;16.45;55.19
11011;BME280;5558;42.702;23.178;2022-10-16T06:45:22;94500.72;;;17.73;53.49
11011;BME280;5558;42.702;23.178;2022-10-16T06:47:50;94497.84;;;17.88;52.48
11011;BME280;5558;42.702;23.178;2022-10-16T06:50:17;94499.69;;;18.80;49.74
11011;BME280;5558;42.702;23.178;2022-10-16T06:52:44;94508.91;;;18.88;50.06
11011;BME280;5558;42.702;23.178;2022-10-16T06:55:10;94509.59;;;18.29;51.58
11011;BME280;5558;42.702;23.178;2022-10-16T06:57:37;94513.22;;;17.35;53.21
11011;BME280;5558;42.702;23.178;2022-10-16T07:00:06;94511.56;;;16.87;55.90
11011;BME280;5558;42.702;23.178;2022-10-16T07:02:32;94516.03;;;15.91;60.75
11011;BME280;5558;42.702;23.178;2022-10-16T07:05:01;94509.69;;;15.03;63.34
11011;BME280;5558;42.702;23.178;2022-10-16T07:07:28;94512.44;;;14.47;68.86
11011;BME280;5558;42.702;23.178;2022-10-16T07:09:54;94521.13;;;13.83;72.39
11011;BME280;5558;42.702;23.178;2022-10-16T07:12:21;94523.41;;;13.49;77.36
11011;BME280;5558;42.702;23.178;2022-10-16T07:14:48;94532.28;;;13.13;80.37
11011;BME280;5558;42.702;23.178;2022-10-16T07:17:17;94530.19;;;12.73;83.49
11011;BME280;5558;42.702;23.178;2022-10-16T07:19:44;94539.59;;;12.54;88.80
11011;BME280;5558;42.702;23.178;2022-10-16T07:22:12;94531.34;;;12.19;90.04
11011;BME280;5558;42.702;23.178;2022-10-16T07:24:39;94523.94;;;11.94;91.72
11011;BME280;5558;42.702;23.178;2022-10-16T07:27:06;94524.72;;;11.90;92.58
11011;BME280;5558;42.702;23.178;2022-10-16T07:29:33;94532.53;;;11.75;95.04
11011;BME280;5558;42.702;23.178;2022-10-16T07:31:59;94529.16;;;11.84;98.96
11011;BME280;5558;42.702;23.178;2022-10-16T07:34:26;94530.72;;;11.80;97.25
11011;BME280;5558;42.702;23.178;2022-10-16T07:36:53;94535.78;;;11.82;98.44
11011;BME280;5558;42.702;23.178;2022-10-16T07:39:21;94535.88;;;11.92;98.12
11011;BME280;5558;42.702;23.178;2022-10-16T07:41:47;94535.06;;;11.91;100.00
11011;BME280;5558;42.702;23.178;2022-10-16T07:44:15;94542.28;;;11.96;99.12
11011;BME280;5558;42.702;23.178;2022-10-16T07:46:42;94538.88;;;12.00;97.05
11011;BME280;5558;42.702;23.178;2022-10-16T07:49:09;94541.88;;;11.82;98.43
11011;BME280;5558;42.702;23.178;2022-10-16T07:51:35;94540.69;;;11.95;98.83
11011;BME280;5558;42.702;23.178;2022-10-16T07:54:03;94546.06;;;12.05;94.73
11011;BME280;5558;42.702;23.178;2022-10-16T07:56:32;94541.34;;;12.07;93.43
11011;BME280;5558;42.702;23.178;2022-10-16T07:58:59;94548.00;;;12.14;94.57
11011;BME280;5558;42.702;23.178;2022-10-16T08:01:25;94545.06;;;12.11;96.77
11011;BME280;5558;42.702;23.178;2022-10-16T08:03:52;94549.63;;;12.15;96.31
11011;BME280;5558;42.702;23.178;2022-10-16T08:06:21;94545.63;;;12.13;96.12
11011;BME280;5558;42.702;23.178;2022-10-16T08:08:48;94537.88;;;12.06;97.18
11011;BME280;5558;42.702;23.178;2022-10-16T08:11:14;94546.59;;;12.02;97.07
11011;BME280;5558;42.702;23.178;2022-10-16T08:13:43;94547.56;;;12.22;91.56
11011;BME280;5558;42.702;23.178;2022-10-16T08:16:09;94538.28;;;12.25;92.00
11011;BME280;5558;42.702;23.178;2022-10-16T08:18:38;94544.38;;;12.20;91.87
11011;BME280;5558;42.702;23.178;2022-10-16T08:21:06;94542.66;;;12.09;95.62
11011;BME280;5558;42.702;23.178;2022-10-16T08:23:33;94549.47;;;12.27;94.52
11011;BME280;5558;42.702;23.178;2022-10-16T08:26:03;94493.81;;;12.05;92.58
11011;BME280;5558;42.702;23.178;2022-10-16T08:28:31;94539.31;;;12.51;89.94
11011;BME280;5558;42.702;23.178;2022-10-16T08:31:06;94544.31;;;12.47;88.05
11011;BME280;5558;42.702;23.178;2022-10-16T08:33:33;94542.25;;;12.54;87.15
11011;BME280;5558;42.702;23.178;2022-10-16T08:36:01;94533.16;;;12.45;83.90
11011;BME280;5558;42.702;23.178;2022-10-16T08:38:28;94531.81;;;12.43;81.44
11011;BME280;5558;42.702;23.178;2022-10-16T08:41:00;94547.06;;;12.57;83.90
11011;BME280;5558;42.702;23.178;2022-10-16T08:46:42;94547.50;;;12.86;81.41
11011;BME280;5558;42.702;23.178;2022-10-16T08:49:13;94549.16;;;12.92;81.06
11011;BME280;5558;42.702;23.178;2022-10-16T08:51:40;94545.47;;;12.98;81.28
11011;BME280;5558;42.702;23.178;2022-10-16T08:54:22;94550.31;;;13.06;78.00
11011;BME280;5558;42.702;23.178;2022-10-16T08:56:54;94551.44;;;13.15;78.43
11011;BME280;5558;42.702;23.178;2022-10-16T08:59:20;94551.44;;;13.15;74.40
11011;BME280;5558;42.702;23.178;2022-10-16T09:01:50;94556.25;;;13.23;76.09
11011;BME280;5558;42.702;23.178;2022-10-16T09:07:24;94554.22;;;13.40;70.18
11011;BME280;5558;42.702;23.178;2022-10-16T09:10:05;94554.78;;;13.47;70.87
11011;BME280;5558;42.702;23.178;2022-10-16T09:12:39;94551.34;;;13.57;69.91
11011;BME280;5558;42.702;23.178;2022-10-16T09:15:18;94557.78;;;13.66;67.71
11011;BME280;5558;42.702;23.178;2022-10-16T09:17:54;94555.72;;;13.88;71.92
11011;BME280;5558;42.702;23.178;2022-10-16T09:20:30;94548.31;;;14.00;66.44
11011;BME280;5558;42.702;23.178;2022-10-16T09:23:16;94548.56;;;14.03;65.71
11011;BME280;5558;42.702;23.178;2022-10-16T09:25:46;94544.31;;;14.22;64.15
11011;BME280;5558;42.702;23.178;2022-10-16T09:28:14;94553.91;;;14.13;60.51
11011;BME280;5558;42.702;23.178;2022-10-16T09:30:41;94552.78;;;13.89;61.40
11011;BME280;5558;42.702;23.178;2022-10-16T09:33:12;94558.94;;;14.00;62.68
11011;BME280;5558;42.702;23.178;2022-10-16T09:35:42;94558.13;;;13.94;61.11
11011;BME280;5558;42.702;23.178;2022-10-16T09:38:20;94562.38;;;13.90;61.47
11011;BME280;5558;42.702;23.178;2022-10-16T09:40:48;94557.28;;;13.79;61.48
11011;BME280;5558;42.702;23.178;2022-10-16T09:43:23;94555.19;;;13.86;59.85
11011;BME280;5558;42.702;23.178;2022-10-16T09:45:54;94522.41;;;13.75;59.80
11011;BME280;5558;42.702;23.178;2022-10-16T09:48:25;94542.97;;;13.95;62.53
11011;BME280;5558;42.702;23.178;2022-10-16T09:50:58;94540.38;;;14.35;62.21
11011;BME280;5558;42.702;23.178;2022-10-16T09:53:36;94541.19;;;14.45;59.83
11011;BME280;5558;42.702;23.178;2022-10-16T09:56:04;94537.44;;;14.61;57.98
11011;BME280;5558;42.702;23.178;2022-10-16T09:58:31;94534.00;;;14.71;58.22
11011;BME280;5558;42.702;23.178;2022-10-16T10:00:59;94537.69;;;14.80;56.90
11011;BME280;5558;42.702;23.178;2022-10-16T10:03:34;94537.19;;;14.78;55.47
11011;BME280;5558;42.702;23.178;2022-10-16T10:06:07;94534.50;;;14.88;55.30
11011;BME280;5558;42.702;23.178;2022-10-16T10:08:53;94504.16;;;14.69;55.32
11011;BME280;5558;42.702;23.178;2022-10-16T10:11:42;94536.09;;;14.84;55.54
11011;BME280;5558;42.702;23.178;2022-10-16T10:14:15;94535.06;;;14.70;55.53
11011;BME280;5558;42.702;23.178;2022-10-16T10:16:43;94532.91;;;14.72;54.74
11011;BME280;5558;42.702;23.178;2022-10-16T10:19:15;94525.69;;;14.98;54.29
11011;BME280;5558;42.702;23.178;2022-10-16T10:21:42;94524.09;;;15.07;53.08
11011;BME280;5558;42.702;23.178;2022-10-16T10:24:11;94528.88;;;15.05;53.65
11011;BME280;5558;42.702;23.178;2022-10-16T10:26:39;94524.81;;;15.22;53.88
11011;BME280;5558;42.702;23.178;2022-10-16T10:29:17;94520.56;;;15.21;52.34
11011;BME280;5558;42.702;23.178;2022-10-16T10:31:50;94512.84;;;15.20;52.05
11011;BME280;5558;42.702;23.178;2022-10-16T10:34:33;94501.59;;;15.33;53.84
11011;BME280;5558;42.702;23.178;2022-10-16T10:37:05;94497.31;;;15.32;52.34
11011;BME280;5558;42.702;23.178;2022-10-16T10:39:40;94494.97;;;15.20;54.24
11011;BME280;5558;42.702;23.178;2022-10-16T10:42:17;94511.78;;;15.16;52.99
11011;BME280;5558;42.702;23.178;2022-10-16T10:48:12;94495.69;;;15.41;52.91
11011;BME280;5558;42.702;23.178;2022-10-16T10:50:47;94493.53;;;15.53;53.71
11011;BME280;5558;42.702;23.178;2022-10-16T10:53:25;94504.13;;;15.63;51.70
11011;BME280;5558;42.702;23.178;2022-10-16T10:56:09;94481.16;;;15.72;50.88
11011;BME280;5558;42.702;23.178;2022-10-16T10:59:09;94485.16;;;15.74;51.76
11011;BME280;5558;42.702;23.178;2022-10-16T11:01:50;94495.59;;;15.71;51.89
11011;BME280;5558;42.702;23.178;2022-10-16T11:07:20;94483.59;;;15.63;51.50
11011;BME280;5558;42.702;23.178;2022-10-16T11:09:52;94483.03;;;15.66;52.17
11011;BME280;5558;42.702;23.178;2022-10-16T11:12:21;94485.41;;;15.73;49.64
11011;BME280;5558;42.702;23.178;2022-10-16T11:14:54;94483.28;;;15.70;50.56
11011;BME280;5558;42.702;23.178;2022-10-16T11:17:27;94488.00;;;15.83;50.86
11011;BME280;5558;42.702;23.178;2022-10-16T11:19:59;94482.22;;;15.76;52.74
11011;BME280;5558;42.702;23.178;2022-10-16T11:22:33;94477.06;;;15.90;53.55
11011;BME280;5558;42.702;23.178;2022-10-16T11:25:06;94474.63;;;15.93;51.82
11011;BME280;5558;42.702;23.178;2022-10-16T11:27:43;94477.22;;;16.03;50.22
11011;BME280;5558;42.702;23.178;2022-10-16T11:30:16;94467.28;;;16.09;51.67
11011;BME280;5558;42.702;23.178;2022-10-16T11:32:56;94481.66;;;16.18;50.04
11011;BME280;5558;42.702;23.178;2022-10-16T11:35:37;94474.78;;;16.12;49.96
11011;BME280;5558;42.702;23.178;2022-10-16T11:38:10;94472.09;;;16.12;50.64
11011;BME280;5558;42.702;23.178;2022-10-16T11:40:43;94468.81;;;16.20;50.71
11011;BME280;5558;42.702;23.178;2022-10-16T11:43:17;94475.50;;;16.17;50.72
11011;BME280;5558;42.702;23.178;2022-10-16T11:45:49;94467.75;;;16.21;51.91
11011;BME280;5558;42.702;23.178;2022-10-16T11:48:23;94474.34;;;16.33;52.28
11011;BME280;5558;42.702;23.178;2022-10-16T11:50:54;94471.84;;;16.42;52.41
11011;BME280;5558;42.702;23.178;2022-10-16T11:53:35;94476.97;;;16.38;48.35
11011;BME280;5558;42.702;23.178;2022-10-16T11:56:04;94469.22;;;16.37;47.99
11011;BME280;5558;42.702;23.178;2022-10-16T11:58:33;94472.97;;;16.36;48.87
11011;BME280;5558;42.702;23.178;2022-10-16T12:01:15;94446.94;;;16.18;49.21
11011;BME280;5558;42.702;23.178;2022-10-16T12:03:48;94468.66;;;16.40;50.12
11011;BME280;5558;42.702;23.178;2022-10-16T12:06:30;94467.47;;;16.56;50.15
11011;BME280;5558;42.702;23.178;2022-10-16T12:09:00;94466.22;;;16.48;48.26
11011;BME280;5558;42.702;23.178;2022-10-16T12:11:34;94472.91;;;16.46;50.85
11011;BME280;5558;42.702;23.178;2022-10-16T12:14:20;94464.06;;;16.45;48.29
11011;BME280;5558;42.702;23.178;2022-10-16T12:16:53;94477.44;;;16.50;47.70
11011;BME280;5558;42.702;23.178;2022-10-16T12:19:21;94461.16;;;16.47;46.73
11011;BME280;5558;42.702;23.178;2022-10-16T12:21:50;94469.41;;;16.50;48.08
11011;BME280;5558;42.702;23.178;2022-10-16T12:24:33;94473.63;;;16.56;45.70
11011;BME280;5558;42.702;23.178;2022-10-16T12:27:01;94471.38;;;16.68;45.15
11011;BME280;5558;42.702;23.178;2022-10-16T12:29:38;94467.91;;;16.68;45.08
11011;BME280;5558;42.702;23.178;2022-10-16T12:32:23;94467.06;;;16.72;46.21
11011;BME280;5558;42.702;23.178;2022-10-16T12:34:52;94472.41;;;16.72;44.98
11011;BME280;5558;42.702;23.178;2022-10-16T12:37:21;94471.31;;;16.73;45.64
11011;BME280;5558;42.702;23.178;2022-10-16T12:39:51;94469.75;;;16.72;46.47
11011;BME280;5558;42.702;23.178;2022-10-16T12:42:39;94464.88;;;16.74;45.85
11011;BME280;5558;42.702;23.178;2022-10-16T12:45:25;94472.84;;;16.79;47.63
11011;BME280;5558;42.702;23.178;2022-10-16T12:47:53;94468.97;;;16.95;45.50
11011;BME280;5558;42.702;23.178;2022-10-16T12:50:30;94475.16;;;16.91;45.45
11011;BME280;5558;42.702;23.178;2022-10-16T12:52:58;94467.25;;;16.81;45.73
11011;BME280;5558;42.702;23.178;2022-10-16T12:55:26;94475.22;;;16.86;45.50
11011;BME280;5558;42.702;23.178;2022-10-16T12:58:07;94477.03;;;16.90;44.80
11011;BME280;5558;42.702;23.178;2022-10-16T13:00:41;94474.78;;;17.02;46.18
11011;BME280;5558;42.702;23.178;2022-10-16T13:03:44;94482.03;;;16.97;43.98
11011;BME280;5558;42.702;23.178;2022-10-16T13:06:20;94486.06;;;16.99;43.40
11011;BME280;5558;42.702;23.178;2022-10-16T13:17:32;94482.28;;;17.00;43.43
11011;BME280;5558;42.702;23.178;2022-10-16T13:20:10;94476.94;;;17.00;44.16
11011;BME280;5558;42.702;23.178;2022-10-16T13:22:43;94480.66;;;17.04;45.24
11011;BME280;5558;42.702;23.178;2022-10-16T13:25:20;94473.63;;;17.08;44.03
11011;BME280;5558;42.702;23.178;2022-10-16T13:27:54;94483.75;;;17.12;44.94
11011;BME280;5558;42.702;23.178;2022-10-16T13:30:23;94490.72;;;17.13;44.78
11011;BME280;5558;42.702;23.178;2022-10-16T13:32:59;94483.50;;;17.13;44.37
11011;BME280;5558;42.702;23.178;2022-10-16T13:35:28;94484.34;;;17.08;43.11
11011;BME280;5558;42.702;23.178;2022-10-16T13:38:08;94491.00;;;17.11;43.75